createdAt,value
2022-10-22T00:01:20.137Z,9.98
2022-10-22T00:03:47.955Z,9.92
2022-10-22T00:06:15.682Z,9.87
2022-10-22T00:08:43.406Z,9.83
2022-10-22T00:11:16.786Z,9.81
2022-10-22T00:13:44.541Z,9.82
2022-10-22T00:16:12.765Z,9.83
2022-10-22T00:18:40.857Z,9.86
2022-10-22T00:21:08.656Z,9.89
2022-10-22T00:23:36.521Z,9.93
2022-10-22T00:26:04.406Z,9.96
2022-10-22T00:28:32.050Z,10.00
2022-10-22T00:31:01.457Z,10.05
2022-10-22T00:33:29.701Z,10.09
2022-10-22T00:35:57.381Z,10.13
2022-10-22T00:38:25.240Z,10.17
2022-10-22T00:40:53.216Z,10.21
2022-10-22T00:43:21.272Z,10.23
2022-10-22T00:45:49.430Z,10.26
2022-10-22T00:48:30.076Z,10.29
2022-10-22T00:51:08.215Z,10.33
2022-10-22T00:53:41.706Z,10.36
2022-10-22T00:56:10.470Z,10.40
2022-10-22T00:58:45.492Z,10.44
2022-10-22T01:01:36.629Z,10.44
2022-10-22T01:04:06.078Z,10.41
2022-10-22T01:06:34.457Z,10.38
2022-10-22T01:09:35.861Z,10.36
2022-10-22T01:12:21.772Z,10.31
2022-10-22T01:15:20.721Z,10.28
2022-10-22T01:18:01.317Z,10.27
2022-10-22T01:20:51.455Z,10.26
2022-10-22T01:24:07.831Z,10.25
2022-10-22T01:26:50.826Z,10.25
2022-10-22T01:29:57.001Z,10.24
2022-10-22T01:32:29.808Z,10.23
2022-10-22T01:35:12.507Z,10.28
2022-10-22T01:37:48.344Z,10.30
2022-10-22T01:40:20.971Z,10.27
2022-10-22T01:43:08.358Z,10.30
2022-10-22T01:45:40.020Z,10.32
2022-10-22T01:48:10.550Z,10.32
2022-10-22T01:51:04.935Z,10.31
2022-10-22T01:53:50.167Z,10.29
2022-10-22T01:56:36.511Z,10.27
2022-10-22T01:59:10.580Z,10.26
2022-10-22T02:01:54.162Z,10.25
2022-10-22T02:04:21.974Z,10.22
2022-10-22T02:06:53.319Z,10.21
2022-10-22T02:09:26.330Z,10.20
2022-10-22T02:11:56.395Z,10.16
2022-10-22T02:14:27.992Z,10.13
2022-10-22T02:16:57.939Z,10.12
2022-10-22T02:19:46.905Z,10.11
2022-10-22T02:22:14.922Z,10.06
2022-10-22T02:24:42.879Z,10.00
2022-10-22T02:27:36.227Z,9.95
2022-10-22T02:30:11.558Z,9.88
2022-10-22T02:32:50.543Z,9.84
2022-10-22T02:35:22.102Z,9.80
2022-10-22T02:37:51.224Z,9.76
2022-10-22T02:40:19.463Z,9.73
2022-10-22T02:42:49.768Z,9.69
2022-10-22T02:45:21.673Z,9.67
2022-10-22T02:47:51.055Z,9.63
2022-10-22T02:50:20.362Z,9.59
2022-10-22T02:52:47.959Z,9.55
2022-10-22T02:55:15.945Z,9.58
2022-10-22T02:57:43.805Z,9.61
2022-10-22T03:00:12.466Z,9.62
2022-10-22T03:02:40.537Z,9.63
2022-10-22T03:05:08.937Z,9.66
2022-10-22T03:07:36.590Z,9.68
2022-10-22T03:10:05.564Z,9.69
2022-10-22T03:12:33.459Z,9.69
2022-10-22T03:15:01.132Z,9.72
2022-10-22T03:17:32.461Z,9.73
2022-10-22T03:20:00.241Z,9.74
2022-10-22T03:22:32.533Z,9.75
2022-10-22T03:25:04.372Z,9.76
2022-10-22T03:27:32.229Z,9.80
2022-10-22T03:29:59.869Z,9.84
2022-10-22T03:32:27.765Z,9.85
2022-10-22T03:34:55.851Z,9.87
2022-10-22T03:37:26.741Z,9.87
2022-10-22T03:39:55.464Z,9.85
2022-10-22T03:42:24.190Z,9.88
2022-10-22T03:44:52.700Z,9.89
2022-10-22T03:47:20.394Z,9.90
2022-10-22T03:49:48.171Z,9.92
2022-10-22T03:52:17.155Z,9.91
2022-10-22T03:54:45.027Z,9.90
2022-10-22T03:57:13.272Z,9.89
2022-10-22T03:59:43.354Z,9.89
2022-10-22T04:02:12.671Z,9.90
2022-10-22T04:04:40.413Z,9.88
2022-10-22T04:07:09.029Z,9.88
2022-10-22T04:09:37.000Z,9.88
2022-10-22T04:12:07.899Z,9.88
2022-10-22T04:14:35.745Z,9.89
2022-10-22T04:17:03.574Z,9.90
2022-10-22T04:19:31.347Z,9.91
2022-10-22T04:21:59.926Z,9.93
2022-10-22T04:24:31.273Z,9.96
2022-10-22T04:26:59.440Z,9.98
2022-10-22T04:29:27.751Z,10.01
2022-10-22T04:31:55.959Z,10.03
2022-10-22T04:34:27.411Z,10.08
2022-10-22T04:36:55.930Z,10.10
2022-10-22T04:39:23.983Z,10.09
2022-10-22T04:41:51.759Z,10.06
2022-10-22T04:44:19.788Z,10.03
2022-10-22T04:46:47.670Z,10.02
2022-10-22T04:49:15.601Z,10.01
2022-10-22T04:51:43.250Z,10.01
2022-10-22T04:54:11.084Z,10.02
2022-10-22T04:56:39.082Z,10.02
2022-10-22T04:59:09.256Z,10.03
2022-10-22T05:01:42.803Z,10.03
2022-10-22T05:04:14.247Z,10.01
2022-10-22T05:06:42.721Z,10.01
2022-10-22T05:09:16.908Z,10.01
2022-10-22T05:11:48.743Z,10.03
2022-10-22T05:14:24.984Z,10.05
2022-10-22T05:16:53.668Z,10.06
2022-10-22T05:19:27.706Z,10.07
2022-10-22T05:21:58.625Z,10.09
2022-10-22T05:24:27.449Z,10.11
2022-10-22T05:26:57.359Z,10.13
2022-10-22T05:29:26.037Z,10.15
2022-10-22T05:31:54.310Z,10.19
2022-10-22T05:34:22.150Z,10.22
2022-10-22T05:36:50.107Z,10.25
2022-10-22T05:39:17.750Z,10.28
2022-10-22T05:41:45.513Z,10.33
2022-10-22T05:44:13.940Z,10.36
2022-10-22T05:46:43.426Z,10.42
2022-10-22T05:49:14.621Z,10.48
2022-10-22T05:51:42.821Z,10.55
2022-10-22T05:54:20.054Z,10.63
2022-10-22T05:56:49.195Z,10.73
2022-10-22T05:59:16.870Z,10.81
2022-10-22T06:01:44.538Z,10.89
2022-10-22T06:04:13.208Z,10.96
2022-10-22T06:06:42.703Z,11.04
2022-10-22T06:09:33.810Z,11.13
2022-10-22T06:12:02.122Z,11.25
2022-10-22T06:14:32.231Z,11.33
2022-10-22T06:17:00.652Z,11.42
2022-10-22T06:19:32.566Z,11.47
2022-10-22T06:22:00.481Z,11.52
2022-10-22T06:24:28.293Z,11.54
2022-10-22T06:26:56.555Z,11.62
2022-10-22T06:29:24.158Z,11.67
2022-10-22T06:31:52.134Z,11.72
2022-10-22T06:34:20.136Z,11.75
2022-10-22T06:36:48.137Z,11.78
2022-10-22T06:39:17.900Z,11.81
2022-10-22T06:41:45.883Z,11.86
2022-10-22T06:44:19.426Z,11.89
2022-10-22T06:46:53.542Z,11.94
2022-10-22T06:49:21.698Z,11.99
2022-10-22T06:51:51.420Z,12.03
2022-10-22T06:54:20.681Z,12.06
2022-10-22T06:56:50.414Z,12.11
2022-10-22T06:59:18.509Z,12.10
2022-10-22T07:01:46.321Z,12.18
2022-10-22T07:04:14.252Z,12.22
2022-10-22T07:06:42.512Z,12.26
2022-10-22T07:09:10.214Z,12.30
2022-10-22T07:11:43.992Z,12.34
2022-10-22T07:14:12.907Z,12.39
2022-10-22T07:16:43.110Z,12.44
2022-10-22T07:19:10.978Z,12.49
2022-10-22T07:21:39.259Z,12.54
2022-10-22T07:24:07.664Z,12.63
2022-10-22T07:26:35.461Z,12.69
2022-10-22T07:29:06.146Z,12.73
2022-10-22T07:31:34.035Z,12.76
2022-10-22T07:34:02.081Z,12.80
2022-10-22T07:36:30.158Z,12.85
2022-10-22T07:38:59.514Z,12.89
2022-10-22T07:41:29.579Z,12.95
2022-10-22T07:43:58.245Z,13.00
2022-10-22T07:46:26.601Z,13.03
2022-10-22T07:48:54.511Z,13.06
2022-10-22T07:51:22.720Z,13.09
2022-10-22T07:53:50.808Z,13.12
2022-10-22T07:56:18.637Z,13.15
2022-10-22T07:58:47.156Z,13.20
2022-10-22T08:01:15.318Z,13.25
2022-10-22T08:03:43.018Z,13.28
2022-10-22T08:06:14.933Z,13.32
2022-10-22T08:08:45.822Z,13.34
2022-10-22T08:11:16.359Z,13.40
2022-10-22T08:13:45.550Z,13.43
2022-10-22T08:16:14.415Z,13.47
2022-10-22T08:18:42.471Z,13.50
2022-10-22T08:21:11.668Z,13.54
2022-10-22T08:23:39.304Z,13.57
2022-10-22T08:26:07.697Z,13.60
2022-10-22T08:28:37.192Z,13.61
2022-10-22T08:31:07.847Z,13.66
2022-10-22T08:33:36.640Z,13.72
2022-10-22T08:36:05.120Z,13.77
2022-10-22T08:38:33.046Z,13.81
2022-10-22T08:41:10.496Z,13.85
2022-10-22T08:43:50.681Z,13.90
2022-10-22T08:46:55.773Z,13.92
2022-10-22T08:49:27.536Z,13.99
2022-10-22T08:51:58.246Z,14.06
2022-10-22T08:54:50.807Z,14.14
2022-10-22T08:57:27.874Z,14.22
2022-10-22T09:00:05.752Z,14.30
2022-10-22T09:02:46.395Z,14.36
2022-10-22T09:05:23.324Z,14.43
2022-10-22T09:07:53.083Z,14.53
2022-10-22T09:10:27.557Z,14.59
2022-10-22T09:12:55.542Z,14.63
2022-10-22T09:15:23.743Z,14.66
2022-10-22T09:18:14.669Z,14.69
2022-10-22T09:21:00.293Z,14.74
2022-10-22T09:23:37.286Z,14.76
2022-10-22T09:26:13.459Z,14.78
2022-10-22T09:28:41.968Z,14.77
2022-10-22T09:31:14.858Z,14.74
2022-10-22T09:33:44.887Z,14.69
2022-10-22T09:36:18.430Z,14.62
2022-10-22T09:38:51.899Z,14.57
2022-10-22T09:41:23.495Z,14.53
2022-10-22T09:43:52.037Z,14.49
2022-10-22T09:46:24.061Z,14.47
2022-10-22T09:49:01.442Z,14.46
2022-10-22T09:51:56.380Z,14.44
2022-10-22T09:54:37.189Z,14.40
2022-10-22T09:57:14.184Z,14.39
2022-10-22T09:59:43.244Z,14.36
2022-10-22T10:02:44.009Z,14.34
2022-10-22T10:05:21.178Z,14.35
2022-10-22T10:07:49.057Z,14.36
2022-10-22T10:10:27.140Z,14.35
2022-10-22T10:13:21.116Z,14.34
2022-10-22T10:16:12.412Z,14.34
2022-10-22T10:19:02.217Z,14.34
2022-10-22T10:21:54.815Z,14.32
2022-10-22T10:24:44.756Z,14.32
2022-10-22T10:27:26.128Z,14.33
2022-10-22T10:30:06.426Z,14.36
2022-10-22T10:33:11.506Z,14.35
2022-10-22T10:36:02.243Z,14.34
2022-10-22T10:39:05.159Z,14.32
2022-10-22T10:42:01.941Z,14.27
2022-10-22T10:44:52.924Z,14.25
2022-10-22T10:47:51.960Z,14.22
2022-10-22T10:50:52.516Z,14.23
2022-10-22T10:53:36.790Z,14.27
2022-10-22T10:56:07.568Z,14.27
2022-10-22T10:58:47.915Z,14.27
2022-10-22T11:01:28.276Z,14.29
2022-10-22T11:04:02.211Z,14.33
2022-10-22T11:06:37.350Z,14.42
2022-10-22T11:09:52.900Z,14.51
2022-10-22T11:12:39.688Z,14.60
2022-10-22T11:15:40.084Z,14.67
2022-10-22T11:18:17.968Z,14.78
2022-10-22T11:21:13.305Z,14.92
2022-10-22T11:23:53.820Z,15.09
2022-10-22T11:26:56.860Z,15.26
2022-10-22T11:29:32.840Z,15.52
2022-10-22T11:32:03.171Z,15.75
2022-10-22T11:34:44.517Z,15.92
2022-10-22T11:37:14.399Z,16.03
2022-10-22T11:40:13.267Z,16.10
2022-10-22T11:42:52.303Z,16.19
2022-10-22T11:45:28.768Z,16.19
2022-10-22T11:47:56.724Z,16.13
2022-10-22T11:50:43.621Z,16.07
2022-10-22T11:53:14.379Z,15.96
2022-10-22T11:55:48.204Z,15.86
2022-10-22T11:58:28.722Z,15.78
2022-10-22T12:01:12.650Z,15.70
2022-10-22T12:03:44.028Z,15.60
2022-10-22T12:06:15.809Z,15.54
2022-10-22T12:08:49.638Z,15.50
2022-10-22T12:11:20.139Z,15.52
2022-10-22T12:14:28.083Z,15.56
2022-10-22T12:16:58.093Z,15.62
2022-10-22T12:19:46.701Z,15.65
2022-10-22T12:22:27.282Z,15.69
2022-10-22T12:25:01.077Z,15.70
2022-10-22T12:27:40.566Z,15.67
2022-10-22T12:30:22.787Z,15.60
2022-10-22T12:32:56.716Z,15.54
2022-10-22T12:35:27.428Z,15.46
2022-10-22T12:38:12.944Z,15.39
2022-10-22T12:40:45.883Z,15.30
2022-10-22T12:43:19.154Z,15.21
2022-10-22T12:45:49.884Z,15.11
2022-10-22T12:48:22.453Z,15.01
2022-10-22T12:50:54.036Z,14.92
2022-10-22T12:53:30.937Z,14.84
2022-10-22T12:56:05.875Z,14.77
2022-10-22T12:59:02.081Z,14.72
2022-10-22T13:01:37.701Z,14.65
2022-10-22T13:04:22.903Z,14.57
2022-10-22T13:07:12.390Z,14.46
2022-10-22T13:09:42.789Z,14.26
2022-10-22T13:12:16.321Z,14.02
2022-10-22T13:14:46.620Z,13.81
2022-10-22T13:17:19.272Z,13.65
2022-10-22T13:19:53.905Z,13.48
2022-10-22T13:22:52.436Z,13.35
2022-10-22T13:25:26.198Z,13.23
2022-10-22T13:28:01.012Z,13.13
2022-10-22T13:30:32.128Z,13.06
2022-10-22T13:33:02.462Z,13.00
2022-10-22T13:35:33.933Z,12.95
2022-10-22T13:38:02.101Z,12.93
2022-10-22T13:40:32.257Z,12.90
2022-10-22T13:42:59.950Z,12.90
2022-10-22T13:45:27.569Z,12.92
2022-10-22T13:47:55.453Z,12.93
2022-10-22T13:50:23.535Z,12.92
2022-10-22T13:52:54.393Z,12.90
2022-10-22T13:55:25.691Z,12.89
2022-10-22T14:00:59.407Z,12.89
2022-10-22T14:03:32.985Z,12.91
2022-10-22T14:06:01.440Z,12.96
2022-10-22T14:08:29.398Z,12.96
2022-10-22T14:10:57.213Z,13.02
2022-10-22T14:13:25.028Z,13.06
2022-10-22T14:15:53.052Z,13.10
2022-10-22T14:18:28.932Z,13.14
2022-10-22T14:21:00.195Z,13.17
2022-10-22T14:23:30.344Z,13.20
2022-10-22T14:25:59.425Z,13.23
2022-10-22T14:28:27.969Z,13.25
2022-10-22T14:30:55.908Z,13.26
2022-10-22T14:33:30.544Z,13.28
2022-10-22T14:36:01.133Z,13.29
2022-10-22T14:38:29.756Z,13.33
2022-10-22T14:40:59.771Z,13.36
2022-10-22T14:43:30.020Z,13.40
2022-10-22T14:45:58.337Z,13.43
2022-10-22T14:48:26.000Z,13.49
2022-10-22T14:50:55.297Z,13.53
2022-10-22T14:53:23.223Z,13.56
2022-10-22T14:55:52.184Z,13.57
2022-10-22T14:58:19.983Z,13.60
2022-10-22T15:00:47.708Z,13.59
2022-10-22T15:03:15.486Z,13.60
2022-10-22T15:05:45.055Z,13.60
2022-10-22T15:08:14.739Z,13.61
2022-10-22T15:10:42.541Z,13.61
2022-10-22T15:13:10.214Z,13.62
2022-10-22T15:15:41.246Z,13.63
2022-10-22T15:18:08.929Z,13.60
2022-10-22T15:20:36.643Z,13.64
2022-10-22T15:23:04.590Z,13.64
2022-10-22T15:25:32.451Z,13.63
2022-10-22T15:28:07.444Z,13.63
2022-10-22T15:30:37.125Z,13.62
2022-10-22T15:33:05.409Z,13.60
2022-10-22T15:35:33.172Z,13.58
2022-10-22T15:38:00.953Z,13.56
2022-10-22T15:40:28.778Z,13.54
2022-10-22T15:42:58.632Z,13.52
2022-10-22T15:45:26.406Z,13.50
2022-10-22T15:47:54.005Z,13.49
2022-10-22T15:50:21.929Z,13.48
2022-10-22T15:52:50.329Z,13.48
2022-10-22T15:55:19.099Z,13.46
2022-10-22T15:57:46.920Z,13.46
2022-10-22T16:00:15.095Z,13.46
2022-10-22T16:02:43.691Z,13.47
2022-10-22T16:05:11.354Z,13.47
2022-10-22T16:07:39.281Z,13.45
2022-10-22T16:10:07.943Z,13.46
2022-10-22T16:12:36.139Z,13.47
2022-10-22T16:15:04.264Z,13.45
2022-10-22T16:17:32.155Z,13.38
2022-10-22T16:20:00.936Z,13.31
2022-10-22T16:22:28.817Z,13.25
2022-10-22T16:24:58.170Z,13.20
2022-10-22T16:27:26.135Z,13.15
2022-10-22T16:29:54.131Z,13.12
2022-10-22T16:32:22.142Z,13.10
2022-10-22T16:34:49.748Z,13.09
2022-10-22T16:37:17.468Z,13.06
2022-10-22T16:39:46.099Z,13.08
2022-10-22T16:42:13.738Z,13.09
2022-10-22T16:44:41.379Z,13.12
2022-10-22T16:47:09.095Z,13.13
2022-10-22T16:49:36.694Z,13.15
2022-10-22T16:52:04.712Z,13.17
2022-10-22T16:54:32.418Z,13.18
2022-10-22T16:57:00.079Z,13.20
2022-10-22T16:59:28.110Z,13.22
2022-10-22T17:01:56.212Z,13.24
2022-10-22T17:04:23.908Z,13.24
2022-10-22T17:06:51.874Z,13.25
2022-10-22T17:09:19.684Z,13.27
2022-10-22T17:11:47.464Z,13.27
2022-10-22T17:14:15.295Z,13.28
2022-10-22T17:16:43.492Z,13.28
2022-10-22T17:19:14.221Z,13.28
2022-10-22T17:21:42.692Z,13.28
2022-10-22T17:24:10.715Z,13.29
2022-10-22T17:26:38.401Z,13.30
2022-10-22T17:29:06.474Z,13.30
2022-10-22T17:31:39.289Z,13.31
2022-10-22T17:34:14.761Z,13.31
2022-10-22T17:36:43.341Z,13.32
2022-10-22T17:39:15.629Z,13.34
2022-10-22T17:41:43.248Z,13.34
2022-10-22T17:44:12.459Z,13.36
2022-10-22T17:46:40.007Z,13.37
2022-10-22T17:49:20.398Z,13.38
2022-10-22T17:51:48.428Z,13.38
2022-10-22T17:54:16.177Z,13.38
2022-10-22T17:56:44.281Z,13.38
2022-10-22T17:59:14.411Z,13.40
2022-10-22T18:01:45.833Z,13.40
2022-10-22T18:04:16.607Z,13.38
2022-10-22T18:06:46.921Z,13.40
2022-10-22T18:09:18.597Z,13.39
2022-10-22T18:11:48.989Z,13.38
2022-10-22T18:14:18.541Z,13.38
2022-10-22T18:16:49.985Z,13.37
2022-10-22T18:19:23.258Z,13.37
2022-10-22T18:21:51.253Z,13.36
2022-10-22T18:24:19.244Z,13.36
2022-10-22T18:26:46.952Z,13.36
2022-10-22T18:29:18.141Z,13.35
2022-10-22T18:31:47.049Z,13.35
2022-10-22T18:34:17.639Z,13.34
2022-10-22T18:36:48.170Z,13.33
2022-10-22T18:39:16.149Z,13.32
2022-10-22T18:41:43.861Z,13.32
2022-10-22T18:44:14.272Z,13.32
2022-10-22T18:46:41.971Z,13.31
2022-10-22T18:49:15.847Z,13.32
2022-10-22T18:51:44.258Z,13.31
2022-10-22T18:54:22.517Z,13.30
2022-10-22T18:56:52.628Z,13.29
2022-10-22T18:59:24.592Z,13.27
2022-10-22T19:01:54.024Z,13.23
2022-10-22T19:04:21.838Z,13.19
2022-10-22T19:06:49.523Z,13.14
2022-10-22T19:09:17.702Z,13.09
2022-10-22T19:11:45.899Z,13.06
2022-10-22T19:14:15.041Z,13.02
2022-10-22T19:16:42.898Z,12.99
2022-10-22T19:19:11.711Z,12.97
2022-10-22T19:21:39.381Z,12.96
2022-10-22T19:24:07.419Z,12.96
2022-10-22T19:26:35.126Z,12.95
2022-10-22T19:29:03.565Z,12.95
2022-10-22T19:31:32.102Z,12.95
2022-10-22T19:34:01.483Z,12.96
2022-10-22T19:36:31.788Z,12.96
2022-10-22T19:39:00.520Z,12.95
2022-10-22T19:41:29.436Z,12.92
2022-10-22T19:43:58.367Z,12.89
2022-10-22T19:46:29.826Z,12.89
2022-10-22T19:48:57.600Z,12.88
2022-10-22T19:51:27.864Z,12.88
2022-10-22T19:54:00.392Z,12.87
2022-10-22T19:56:28.310Z,12.86
2022-10-22T19:58:56.172Z,12.86
2022-10-22T20:01:24.686Z,12.87
2022-10-22T20:03:53.253Z,12.87
2022-10-22T20:06:21.966Z,12.88
2022-10-22T20:08:52.376Z,12.88
2022-10-22T20:11:26.864Z,12.88
2022-10-22T20:13:55.149Z,12.89
2022-10-22T20:16:26.004Z,12.89
2022-10-22T20:18:53.966Z,12.90
2022-10-22T20:21:21.994Z,12.93
2022-10-22T20:23:53.127Z,12.94
2022-10-22T20:26:23.881Z,12.95
2022-10-22T20:28:52.054Z,12.95
2022-10-22T20:31:22.732Z,12.96
2022-10-22T20:33:51.218Z,12.95
2022-10-22T20:36:21.849Z,12.96
2022-10-22T20:38:50.870Z,12.95
2022-10-22T20:41:21.689Z,12.95
2022-10-22T20:43:51.912Z,12.94
2022-10-22T20:46:32.047Z,12.92
2022-10-22T20:49:10.111Z,12.90
2022-10-22T20:51:38.438Z,12.88
2022-10-22T20:54:08.024Z,12.85
2022-10-22T20:56:37.997Z,12.82
2022-10-22T20:59:08.275Z,12.79
2022-10-22T21:01:40.249Z,12.77
2022-10-22T21:04:08.343Z,12.74
2022-10-22T21:06:40.456Z,12.72
2022-10-22T21:09:09.792Z,12.70
2022-10-22T21:11:39.126Z,12.70
2022-10-22T21:14:07.545Z,12.69
2022-10-22T21:16:35.699Z,12.70
2022-10-22T21:19:03.659Z,12.71
2022-10-22T21:21:31.609Z,12.72
2022-10-22T21:23:59.259Z,12.74
2022-10-22T21:26:27.152Z,12.75
2022-10-22T21:28:54.951Z,12.74
2022-10-22T21:31:26.138Z,12.74
2022-10-22T21:33:54.044Z,12.74
2022-10-22T21:36:23.632Z,12.72
2022-10-22T21:38:52.651Z,12.70
2022-10-22T21:41:22.693Z,12.68
2022-10-22T21:43:51.034Z,12.67
2022-10-22T21:46:24.122Z,12.66
2022-10-22T21:49:02.191Z,12.62
2022-10-22T21:51:32.980Z,12.60
2022-10-22T21:54:01.048Z,12.58
2022-10-22T21:56:32.734Z,12.56
2022-10-22T21:59:01.860Z,12.54
2022-10-22T22:01:29.581Z,12.50
2022-10-22T22:03:57.465Z,12.46
2022-10-22T22:06:29.550Z,12.43
2022-10-22T22:08:59.098Z,12.39
2022-10-22T22:11:28.029Z,12.34
2022-10-22T22:13:56.843Z,12.30
2022-10-22T22:16:30.531Z,12.26
2022-10-22T22:19:00.182Z,12.21
2022-10-22T22:21:28.694Z,12.14
2022-10-22T22:23:57.899Z,12.09
2022-10-22T22:26:29.664Z,12.04
2022-10-22T22:29:00.117Z,11.99
2022-10-22T22:31:33.078Z,11.94
2022-10-22T22:34:12.870Z,11.89
2022-10-22T22:36:43.473Z,11.84
2022-10-22T22:39:17.477Z,11.80
2022-10-22T22:41:46.785Z,11.77
2022-10-22T22:44:14.834Z,11.73
2022-10-22T22:46:43.204Z,11.68
2022-10-22T22:49:12.540Z,11.63
2022-10-22T22:51:41.121Z,11.58
2022-10-22T22:54:09.803Z,11.55
2022-10-22T22:56:38.312Z,11.53
2022-10-22T22:59:06.559Z,11.49
2022-10-22T23:01:37.044Z,11.48
2022-10-22T23:04:07.727Z,11.44
2022-10-22T23:06:37.959Z,11.40
2022-10-22T23:09:08.579Z,11.39
2022-10-22T23:11:37.161Z,11.38
2022-10-22T23:14:06.783Z,11.37
2022-10-22T23:16:37.145Z,11.34
2022-10-22T23:19:05.860Z,11.33
2022-10-22T23:21:40.447Z,11.31
2022-10-22T23:24:11.204Z,11.28
2022-10-22T23:26:46.803Z,11.24
2022-10-22T23:29:20.602Z,11.20
2022-10-22T23:31:49.674Z,11.16
2022-10-22T23:34:22.799Z,11.12
2022-10-22T23:36:51.556Z,11.10
2022-10-22T23:39:22.502Z,11.08
2022-10-22T23:41:51.572Z,11.06
2022-10-22T23:44:22.018Z,11.03
2022-10-22T23:46:51.298Z,11.00
2022-10-22T23:49:20.049Z,10.98
2022-10-22T23:51:48.098Z,10.96
2022-10-22T23:54:17.842Z,10.95
2022-10-22T23:56:45.881Z,10.93
